Time;durP1;ratioP1;P1;durP2;ratioP2;P2;SDS_P1;SDS_P2;PMS_P1;PMS_P2;Temp;Humidity;BMP_temperature;BMP_pressure;BME280_temperature;BME280_humidity;BME280_pressure;Samples;Min_cycle;Max_cycle;Signal;HPM_P1;HPM_P2
2023/06/14 00:01:48;;;;;;;6.80;4.03;;;22.30;35.00;;;;;;4981439;28;20054;-45
2023/06/14 00:04:17;;;;;;;4.70;3.67;;;22.30;35.20;;;;;;4980725;28;20061;-49
2023/06/14 00:06:46;;;;;;;5.78;4.10;;;22.20;35.30;;;;;;4978524;28;20050;-47
2023/06/14 00:09:13;;;;;;;5.18;4.10;;;22.20;35.40;;;;;;4981215;28;20054;-47
2023/06/14 00:11:41;;;;;;;5.93;4.13;;;22.20;35.30;;;;;;4979680;28;20051;-47
2023/06/14 00:14:09;;;;;;;9.40;3.95;;;22.10;35.30;;;;;;4978326;28;20085;-49
2023/06/14 00:16:36;;;;;;;6.47;4.40;;;22.10;35.40;;;;;;4975347;28;20066;-48
2023/06/14 00:19:04;;;;;;;7.90;4.65;;;22.10;35.40;;;;;;4982837;28;20061;-49
2023/06/14 00:21:31;;;;;;;5.97;4.10;;;22.00;35.40;;;;;;4978376;28;20078;-49
2023/06/14 00:24:00;;;;;;;6.50;4.32;;;22.00;35.40;;;;;;4979619;28;20395;-46
2023/06/14 00:26:27;;;;;;;5.60;3.47;;;22.00;35.60;;;;;;4980101;28;20073;-50
2023/06/14 00:28:56;;;;;;;5.28;3.75;;;21.90;35.50;;;;;;4980482;28;20054;-45
2023/06/14 00:31:23;;;;;;;7.20;4.40;;;21.90;35.40;;;;;;4980300;28;20054;-49
2023/06/14 00:33:51;;;;;;;4.90;3.83;;;21.90;35.50;;;;;;4979382;28;20478;-47
2023/06/14 00:36:18;;;;;;;13.23;4.00;;;21.90;35.60;;;;;;4981362;28;20055;-46
2023/06/14 00:38:45;;;;;;;7.43;4.28;;;21.90;35.60;;;;;;4980424;28;20046;-48
2023/06/14 00:41:14;;;;;;;5.55;3.92;;;21.90;35.60;;;;;;4980081;28;20050;-46
2023/06/14 00:43:41;;;;;;;5.70;4.30;;;21.80;35.60;;;;;;4980915;28;20406;-48
2023/06/14 00:46:08;;;;;;;5.13;3.78;;;21.80;35.50;;;;;;4982827;28;20054;-47
2023/06/14 00:48:37;;;;;;;7.05;4.55;;;21.70;35.60;;;;;;4981907;28;20065;-47
2023/06/14 00:51:05;;;;;;;9.57;4.15;;;21.70;35.80;;;;;;4980759;28;20421;-47
2023/06/14 00:53:35;;;;;;;6.00;4.30;;;21.70;35.80;;;;;;4977877;28;20058;-48
2023/06/14 00:56:03;;;;;;;5.97;3.67;;;21.70;35.90;;;;;;4980752;28;20085;-47
2023/06/14 00:58:33;;;;;;;10.63;4.50;;;21.70;36.00;;;;;;4981537;28;20081;-47
2023/06/14 01:01:00;;;;;;;5.60;3.63;;;21.60;36.00;;;;;;4979121;28;20061;-45
2023/06/14 01:03:28;;;;;;;5.40;3.58;;;21.60;36.00;;;;;;4986946;23;20050;-87
2023/06/14 01:06:02;;;;;;;5.07;3.72;;;21.60;36.10;;;;;;4981533;28;20070;-86
2023/06/14 01:08:42;;;;;;;6.38;4.03;;;21.60;36.10;;;;;;4980210;28;20061;-87
2023/06/14 01:11:17;;;;;;;6.13;3.70;;;21.50;36.20;;;;;;4979238;28;20596;-87
2023/06/14 01:13:47;;;;;;;9.50;4.13;;;21.50;36.20;;;;;;4981021;28;20050;-87
2023/06/14 01:16:15;;;;;;;5.90;4.20;;;21.50;36.30;;;;;;4987266;28;20046;-86
2023/06/14 01:18:47;;;;;;;4.57;3.75;;;21.50;36.30;;;;;;4981164;28;20069;-87
2023/06/14 01:21:24;;;;;;;4.90;3.75;;;21.40;36.30;;;;;;4978474;28;20058;-87
2023/06/14 01:23:54;;;;;;;7.60;3.70;;;21.40;36.20;;;;;;4977944;28;20061;-86
2023/06/14 01:26:22;;;;;;;4.50;3.65;;;21.30;36.60;;;;;;4978624;28;20058;-86
2023/06/14 01:28:52;;;;;;;8.57;4.32;;;21.30;36.10;;;;;;4980265;28;20066;-86
2023/06/14 01:31:23;;;;;;;8.13;4.20;;;21.40;36.20;;;;;;4981224;28;20054;-87
2023/06/14 01:33:52;;;;;;;4.93;3.72;;;21.30;36.40;;;;;;4979054;28;20051;-86
2023/06/14 01:36:20;;;;;;;4.85;4.00;;;21.20;36.40;;;;;;4977224;28;20058;-87
2023/06/14 01:38:49;;;;;;;5.22;3.55;;;21.20;36.40;;;;;;4976023;28;20058;-86
2023/06/14 01:41:20;;;;;;;5.75;3.72;;;21.20;36.40;;;;;;4980043;28;20058;-87
2023/06/14 01:43:49;;;;;;;7.38;4.03;;;21.20;36.40;;;;;;4981522;28;20398;-86
2023/06/14 01:46:17;;;;;;;8.38;4.32;;;21.20;36.40;;;;;;4979986;28;20815;-86
2023/06/14 01:48:45;;;;;;;6.07;4.20;;;21.20;36.50;;;;;;4981053;28;20490;-86
2023/06/14 01:51:12;;;;;;;10.77;3.97;;;21.10;36.40;;;;;;4976285;28;20057;-86
2023/06/14 01:53:40;;;;;;;5.32;4.05;;;21.10;36.50;;;;;;4979265;28;20054;-86
2023/06/14 01:56:07;;;;;;;8.48;3.63;;;21.10;37.00;;;;;;4980014;28;20058;-87
2023/06/14 01:58:36;;;;;;;5.60;3.50;;;21.00;36.50;;;;;;4981206;28;20498;-86
2023/06/14 02:01:05;;;;;;;8.38;4.20;;;21.00;36.60;;;;;;4977012;28;20054;-87
2023/06/14 02:03:32;;;;;;;7.32;4.13;;;21.00;36.70;;;;;;4979399;28;20058;-86
2023/06/14 02:05:59;;;;;;;4.47;3.53;;;21.00;36.60;;;;;;4977387;28;20225;-86
2023/06/14 02:08:27;;;;;;;6.85;3.85;;;21.00;36.80;;;;;;4975058;28;20410;-86
2023/06/14 02:10:54;;;;;;;7.75;4.55;;;21.00;36.70;;;;;;4977263;28;20056;-87
2023/06/14 02:13:42;;;;;;;5.63;3.80;;;21.00;36.70;;;;;;4978403;28;20058;-87
2023/06/14 02:16:11;;;;;;;5.07;3.45;;;20.90;36.70;;;;;;4980612;28;20089;-84
2023/06/14 02:18:38;;;;;;;6.97;3.63;;;21.00;36.80;;;;;;4980579;28;20054;-89
2023/06/14 02:21:05;;;;;;;8.02;3.92;;;20.90;36.80;;;;;;4975490;28;20058;-86
2023/06/14 02:23:33;;;;;;;6.03;3.65;;;20.90;36.90;;;;;;4977236;28;20046;-84
2023/06/14 02:26:00;;;;;;;7.68;3.35;;;20.90;36.90;;;;;;4980776;28;20414;-84
2023/06/14 02:28:28;;;;;;;6.60;3.83;;;20.90;36.80;;;;;;4982800;28;20054;-85
2023/06/14 02:30:55;;;;;;;4.63;3.50;;;20.90;36.90;;;;;;4979292;28;20050;-90
2023/06/14 02:33:25;;;;;;;6.57;3.80;;;20.90;36.90;;;;;;4979858;28;20054;-83
2023/06/14 02:35:52;;;;;;;6.05;3.63;;;20.90;36.90;;;;;;4980311;28;20058;-83
2023/06/14 02:38:20;;;;;;;12.27;4.40;;;20.90;36.90;;;;;;4978499;28;20057;-83
2023/06/14 02:40:48;;;;;;;5.82;3.78;;;20.90;37.10;;;;;;4982031;28;20880;-88
2023/06/14 02:43:17;;;;;;;8.57;4.93;;;20.90;36.90;;;;;;4986976;28;20046;-86
2023/06/14 02:45:44;;;;;;;7.28;3.90;;;20.80;36.80;;;;;;4981590;28;20054;-85
2023/06/14 02:48:12;;;;;;;6.18;4.18;;;20.80;36.90;;;;;;4981428;28;20063;-84
2023/06/14 02:50:40;;;;;;;6.53;4.15;;;20.80;37.10;;;;;;4981687;28;20537;-87
2023/06/14 02:53:07;;;;;;;5.63;3.97;;;20.80;37.20;;;;;;4984285;28;20058;-83
2023/06/14 02:55:39;;;;;;;5.57;3.63;;;20.80;37.20;;;;;;4992284;28;20058;-83
2023/06/14 02:58:07;;;;;;;8.45;4.15;;;20.70;37.10;;;;;;4985386;28;20050;-84
2023/06/14 03:00:35;;;;;;;6.97;4.60;;;20.70;37.10;;;;;;4985507;28;20058;-86
2023/06/14 03:03:02;;;;;;;5.47;3.92;;;20.70;37.00;;;;;;4985084;28;20054;-85
2023/06/14 03:05:29;;;;;;;6.10;4.05;;;20.70;37.10;;;;;;4985320;28;20379;-87
2023/06/14 03:07:58;;;;;;;6.38;4.07;;;20.70;37.30;;;;;;4982954;28;20054;-85
2023/06/14 03:10:28;;;;;;;6.03;3.63;;;20.60;37.30;;;;;;4985686;28;20058;-87
2023/06/14 03:12:56;;;;;;;9.98;4.47;;;20.60;37.20;;;;;;4985322;28;20054;-85
2023/06/14 03:15:24;;;;;;;6.63;3.70;;;20.60;37.30;;;;;;4982507;28;20066;-85
2023/06/14 03:17:53;;;;;;;5.53;3.80;;;20.60;37.30;;;;;;4974837;28;20635;-84
2023/06/14 03:20:20;;;;;;;7.25;4.47;;;20.50;37.40;;;;;;4984373;28;20058;-83
2023/06/14 03:22:48;;;;;;;6.35;4.25;;;20.50;37.50;;;;;;4983996;28;20058;-84
2023/06/14 03:25:18;;;;;;;7.57;4.32;;;20.40;37.40;;;;;;4984526;28;20494;-86
2023/06/14 03:27:45;;;;;;;7.85;4.72;;;20.40;37.50;;;;;;4981337;28;20097;-85
2023/06/14 03:30:13;;;;;;;6.88;4.05;;;20.40;37.50;;;;;;4990112;28;20061;-86
2023/06/14 03:32:40;;;;;;;5.07;3.92;;;20.30;37.40;;;;;;4981618;28;20069;-85
2023/06/14 03:35:16;;;;;;;6.57;3.90;;;20.30;37.50;;;;;;4980018;28;20054;-89
2023/06/14 03:37:44;;;;;;;4.63;3.63;;;20.30;37.50;;;;;;4981914;28;20073;-86
2023/06/14 03:40:13;;;;;;;5.45;3.45;;;20.20;37.70;;;;;;4982883;28;20406;-85
2023/06/14 03:42:42;;;;;;;6.10;3.55;;;20.20;37.70;;;;;;4988660;28;20061;-85
2023/06/14 03:45:09;;;;;;;8.05;3.95;;;20.20;37.90;;;;;;4985444;28;20054;-84
2023/06/14 03:47:37;;;;;;;9.20;3.95;;;20.20;38.00;;;;;;4981367;28;20051;-86
2023/06/14 03:50:05;;;;;;;36.80;20.23;;;20.10;38.10;;;;;;4984569;28;20058;-86
2023/06/14 03:52:33;;;;;;;27.92;16.83;;;20.10;38.20;;;;;;4981694;28;20387;-86
2023/06/14 03:55:00;;;;;;;13.23;8.23;;;20.10;38.40;;;;;;4981331;28;20043;-86
2023/06/14 03:57:28;;;;;;;9.73;5.00;;;20.00;38.40;;;;;;4989956;28;20054;-87
2023/06/14 03:59:56;;;;;;;5.55;3.88;;;20.00;38.40;;;;;;4983391;28;20065;-86
2023/06/14 04:02:24;;;;;;;5.88;3.88;;;20.00;38.30;;;;;;4980337;28;20061;-85
2023/06/14 04:04:54;;;;;;;5.43;4.28;;;20.00;38.40;;;;;;4981483;28;20445;-85
2023/06/14 04:07:21;;;;;;;5.75;3.78;;;20.00;38.50;;;;;;4982675;28;20073;-85
2023/06/14 04:09:50;;;;;;;4.53;3.53;;;20.00;38.80;;;;;;4980196;28;20521;-85
2023/06/14 04:12:17;;;;;;;6.40;3.65;;;19.90;38.80;;;;;;4978289;28;20058;-86
2023/06/14 04:14:44;;;;;;;7.40;4.10;;;19.90;38.90;;;;;;4975899;28;20070;-86
2023/06/14 04:17:13;;;;;;;6.40;4.45;;;19.90;39.10;;;;;;4977609;28;20403;-87
2023/06/14 04:19:40;;;;;;;4.78;3.65;;;19.90;39.30;;;;;;4981565;28;20762;-86
2023/06/14 04:22:08;;;;;;;4.93;3.38;;;19.90;39.50;;;;;;4980225;28;20085;-87
2023/06/14 04:24:36;;;;;;;6.03;4.15;;;19.90;39.60;;;;;;4981422;28;20414;-87
2023/06/14 04:27:03;;;;;;;4.85;3.55;;;19.80;39.80;;;;;;4983418;28;20054;-86
2023/06/14 04:29:31;;;;;;;10.05;4.15;;;19.80;39.80;;;;;;4981599;28;20479;-86
2023/06/14 04:32:00;;;;;;;5.80;3.88;;;19.80;40.00;;;;;;4976051;28;20057;-87
2023/06/14 04:34:31;;;;;;;5.38;3.33;;;19.80;39.90;;;;;;4980704;28;20045;-87
2023/06/14 04:36:59;;;;;;;4.65;3.30;;;19.80;39.90;;;;;;4978579;28;20077;-86
2023/06/14 04:39:27;;;;;;;7.90;5.00;;;19.80;39.90;;;;;;4981025;28;20054;-85
2023/06/14 04:41:56;;;;;;;10.75;5.70;;;19.80;39.90;;;;;;4980771;28;20060;-83
2023/06/14 04:44:29;;;;;;;5.68;4.00;;;19.80;39.80;;;;;;4982448;28;20050;-85
2023/06/14 04:46:58;;;;;;;7.45;3.72;;;19.80;39.70;;;;;;4981060;28;20061;-86
2023/06/14 04:49:27;;;;;;;6.05;3.67;;;19.80;39.80;;;;;;4982208;28;20050;-83
2023/06/14 04:51:59;;;;;;;5.93;3.72;;;19.70;39.70;;;;;;4982316;28;20050;-83
2023/06/14 04:54:26;;;;;;;6.93;3.28;;;19.80;39.70;;;;;;4981899;28;20095;-83
2023/06/14 04:56:54;;;;;;;5.72;3.53;;;19.80;39.80;;;;;;4982003;28;20054;-87
2023/06/14 04:59:22;;;;;;;7.03;4.10;;;19.80;40.20;;;;;;4981889;28;20522;-85
2023/06/14 05:01:50;;;;;;;6.97;3.58;;;19.80;40.20;;;;;;4981038;28;21011;-83
2023/06/14 05:04:18;;;;;;;4.53;3.15;;;19.80;40.80;;;;;;4979641;28;20058;-83
2023/06/14 05:06:58;;;;;;;4.97;3.38;;;19.80;40.20;;;;;;4980370;28;20058;-83
2023/06/14 05:09:26;;;;;;;6.53;3.70;;;19.80;40.40;;;;;;4981204;28;20652;-82
2023/06/14 05:11:53;;;;;;;5.20;3.67;;;19.80;40.40;;;;;;4982688;28;20522;-82
2023/06/14 05:14:22;;;;;;;5.07;3.40;;;19.80;40.40;;;;;;4982327;28;20054;-83
2023/06/14 05:16:50;;;;;;;4.47;3.22;;;19.80;40.40;;;;;;4982960;28;20065;-86
2023/06/14 05:19:17;;;;;;;6.32;3.60;;;19.80;40.50;;;;;;4981330;28;20517;-85
2023/06/14 05:21:45;;;;;;;19.02;5.28;;;19.90;40.70;;;;;;4979805;28;20065;-83
2023/06/14 05:24:14;;;;;;;7.95;3.40;;;19.90;41.20;;;;;;4981779;28;20512;-83
2023/06/14 05:26:41;;;;;;;5.43;3.47;;;19.90;41.50;;;;;;4982428;28;20058;-84
2023/06/14 05:29:09;;;;;;;4.20;3.10;;;19.90;40.70;;;;;;4982893;28;20422;-83
2023/06/14 05:31:36;;;;;;;6.47;3.05;;;19.90;40.60;;;;;;4980210;28;20062;-84
2023/06/14 05:34:03;;;;;;;5.82;3.38;;;19.90;40.70;;;;;;4981822;28;20058;-83
2023/06/14 05:36:31;;;;;;;6.13;3.35;;;19.90;40.70;;;;;;4978380;28;20478;-88
2023/06/14 05:38:59;;;;;;;9.55;3.30;;;20.00;40.70;;;;;;4982230;28;20061;-84
2023/06/14 05:41:28;;;;;;;6.35;3.28;;;20.00;40.60;;;;;;4981672;28;20050;-87
2023/06/14 05:43:56;;;;;;;7.60;3.45;;;20.00;40.50;;;;;;4979862;28;20061;-85
2023/06/14 05:46:25;;;;;;;5.38;3.65;;;20.10;40.50;;;;;;4980823;28;20513;-86
2023/06/14 05:48:52;;;;;;;4.75;3.17;;;20.10;40.50;;;;;;4979520;28;20065;-86
2023/06/14 05:51:20;;;;;;;5.45;3.03;;;20.10;40.50;;;;;;4981546;28;20521;-86
2023/06/14 05:53:47;;;;;;;5.13;3.22;;;20.20;40.50;;;;;;4978828;28;20053;-87
2023/06/14 05:56:15;;;;;;;7.70;2.90;;;20.20;40.50;;;;;;4981689;28;20061;-87
2023/06/14 05:58:44;;;;;;;5.32;3.17;;;20.20;40.50;;;;;;4987154;28;20058;-86
2023/06/14 06:01:11;;;;;;;3.17;2.63;;;20.30;40.60;;;;;;4976001;28;20062;-86
2023/06/14 06:03:38;;;;;;;7.53;3.50;;;20.40;40.50;;;;;;4978743;28;20065;-85
2023/06/14 06:06:05;;;;;;;4.22;2.75;;;20.40;40.50;;;;;;4980365;28;20046;-86
2023/06/14 06:08:35;;;;;;;7.57;3.13;;;20.50;40.50;;;;;;4977891;28;20607;-87
2023/06/14 06:11:02;;;;;;;5.32;3.60;;;20.50;40.60;;;;;;4981887;28;20061;-85
2023/06/14 06:13:30;;;;;;;7.85;3.10;;;20.50;40.50;;;;;;4981898;28;20069;-86
2023/06/14 06:15:58;;;;;;;5.90;3.20;;;20.60;40.50;;;;;;4981681;28;20050;-85
2023/06/14 06:18:26;;;;;;;7.90;3.13;;;20.70;40.40;;;;;;4980157;28;20517;-87
2023/06/14 06:20:53;;;;;;;7.53;4.28;;;20.70;40.40;;;;;;4985759;28;20498;-90
2023/06/14 06:23:20;;;;;;;6.35;3.63;;;20.80;40.50;;;;;;4979603;28;20058;-82
2023/06/14 06:25:48;;;;;;;5.93;3.05;;;20.80;40.30;;;;;;4984922;28;20402;-86
2023/06/14 06:28:15;;;;;;;8.77;3.05;;;20.90;39.90;;;;;;4980401;28;20714;-85
2023/06/14 06:30:42;;;;;;;5.43;2.70;;;20.90;39.50;;;;;;4979432;28;20062;-86
2023/06/14 06:33:11;;;;;;;3.22;2.40;;;21.00;39.50;;;;;;4980275;28;20058;-85
2023/06/14 06:35:39;;;;;;;4.60;2.55;;;21.10;39.80;;;;;;4978866;28;20054;-87
2023/06/14 06:38:06;;;;;;;6.90;3.00;;;21.10;39.70;;;;;;4979682;28;20054;-86
2023/06/14 06:40:33;;;;;;;3.60;2.70;;;21.20;39.70;;;;;;4979239;28;20054;-86
2023/06/14 06:43:00;;;;;;;4.03;2.80;;;21.30;39.60;;;;;;4980398;28;20046;-86
2023/06/14 06:45:28;;;;;;;6.93;2.90;;;21.30;39.40;;;;;;4979414;28;20352;-87
2023/06/14 06:47:55;;;;;;;25.80;3.85;;;21.30;39.30;;;;;;4978598;28;20093;-87
2023/06/14 06:50:24;;;;;;;6.20;2.45;;;21.40;39.30;;;;;;4980192;28;20058;-86
2023/06/14 06:52:52;;;;;;;4.53;2.53;;;21.50;39.30;;;;;;4979795;28;20528;-87
2023/06/14 06:55:23;;;;;;;5.95;2.70;;;21.60;39.30;;;;;;4980190;28;20054;-94
2023/06/14 06:57:52;;;;;;;5.43;2.53;;;21.60;39.00;;;;;;4976036;28;20058;-88
2023/06/14 07:00:20;;;;;;;4.85;2.38;;;21.70;39.20;;;;;;4974564;28;20422;-86
2023/06/14 07:02:47;;;;;;;4.72;2.28;;;21.70;39.10;;;;;;4978302;28;20054;-86
2023/06/14 07:05:15;;;;;;;6.57;2.70;;;21.80;38.90;;;;;;4981616;28;20058;-86
2023/06/14 07:07:43;;;;;;;3.25;2.13;;;21.90;38.80;;;;;;4973018;28;20070;-87
2023/06/14 07:10:11;;;;;;;6.38;2.40;;;21.90;39.40;;;;;;4985296;28;20054;-87
2023/06/14 07:12:39;;;;;;;3.58;2.28;;;22.00;38.80;;;;;;4981108;28;20058;-87
2023/06/14 07:15:08;;;;;;;5.75;2.20;;;22.10;38.80;;;;;;4977689;28;20050;-89
2023/06/14 07:17:36;;;;;;;3.25;2.20;;;22.10;38.50;;;;;;4980562;28;20086;-88
2023/06/14 07:20:13;;;;;;;2.72;2.10;;;22.20;38.40;;;;;;4979340;28;20414;-88
2023/06/14 07:22:41;;;;;;;3.85;1.98;;;22.20;38.10;;;;;;4979856;28;20065;-87
2023/06/14 07:25:13;;;;;;;6.20;2.63;;;22.30;38.10;;;;;;4979586;28;20057;-87
2023/06/14 07:27:41;;;;;;;5.57;2.10;;;22.40;37.90;;;;;;4980039;28;20430;-86
2023/06/14 07:30:10;;;;;;;5.93;2.42;;;22.40;37.60;;;;;;4980082;28;20517;-87
2023/06/14 07:32:37;;;;;;;3.90;2.15;;;22.50;37.50;;;;;;4979003;28;20058;-88
2023/06/14 07:35:06;;;;;;;4.07;2.38;;;22.50;37.20;;;;;;4979999;28;20054;-86
2023/06/14 07:37:33;;;;;;;5.90;2.30;;;22.60;37.30;;;;;;4982196;28;20058;-87
2023/06/14 07:40:03;;;;;;;4.90;2.58;;;22.60;37.50;;;;;;4984862;28;21325;-87
2023/06/14 07:42:31;;;;;;;4.32;1.75;;;22.70;37.10;;;;;;4979682;28;20440;-86
2023/06/14 07:44:59;;;;;;;4.13;2.50;;;22.70;36.70;;;;;;4983129;28;20069;-89
2023/06/14 07:47:26;;;;;;;6.75;1.98;;;22.80;36.60;;;;;;4983184;28;20521;-86
2023/06/14 07:49:54;;;;;;;4.28;2.00;;;22.80;36.30;;;;;;4981105;28;20418;-89
2023/06/14 07:52:21;;;;;;;3.30;1.80;;;22.80;36.10;;;;;;4980481;28;20058;-88
2023/06/14 07:54:49;;;;;;;4.72;1.98;;;22.90;36.20;;;;;;4981278;28;20508;-87
2023/06/14 07:57:16;;;;;;;5.50;1.75;;;22.90;35.90;;;;;;4980691;28;20054;-86
2023/06/14 07:59:44;;;;;;;2.47;1.80;;;23.00;36.00;;;;;;4980402;28;20058;-87
2023/06/14 08:02:12;;;;;;;5.45;1.70;;;23.00;35.90;;;;;;4981515;28;20414;-86
2023/06/14 08:04:40;;;;;;;4.13;1.80;;;23.00;35.70;;;;;;4982066;28;20061;-86
2023/06/14 08:07:07;;;;;;;5.80;1.83;;;23.10;35.70;;;;;;4982758;28;20058;-85
2023/06/14 08:09:37;;;;;;;4.82;1.70;;;23.10;35.60;;;;;;4983004;28;20081;-82
2023/06/14 08:12:07;;;;;;;8.70;1.73;;;23.20;35.70;;;;;;4982944;28;20057;-83
2023/06/14 08:14:34;;;;;;;3.72;2.40;;;23.20;35.70;;;;;;4982922;28;20414;-84
2023/06/14 08:17:03;;;;;;;3.15;2.10;;;23.30;35.50;;;;;;4981912;28;20065;-84
2023/06/14 08:19:30;;;;;;;3.08;2.17;;;23.30;35.60;;;;;;4983793;28;20066;-84
2023/06/14 08:21:58;;;;;;;5.10;1.83;;;23.30;35.50;;;;;;4982892;28;20058;-83
2023/06/14 08:24:26;;;;;;;62.40;5.95;;;23.40;35.40;;;;;;4983357;28;20050;-87
2023/06/14 08:26:54;;;;;;;3.10;1.70;;;23.40;35.80;;;;;;4983132;28;20046;-84
2023/06/14 08:29:21;;;;;;;3.58;1.70;;;23.50;35.00;;;;;;4982855;28;20483;-84
2023/06/14 08:31:48;;;;;;;3.53;1.70;;;23.50;35.10;;;;;;4978984;28;20529;-85
2023/06/14 08:34:17;;;;;;;4.07;1.60;;;23.60;34.80;;;;;;4983521;28;20061;-84
2023/06/14 08:36:44;;;;;;;2.67;1.67;;;23.60;34.40;;;;;;4979510;28;20058;-85
2023/06/14 08:39:11;;;;;;;4.50;1.98;;;23.60;33.90;;;;;;4983045;28;20058;-86
2023/06/14 08:41:39;;;;;;;2.22;1.67;;;23.70;33.80;;;;;;4983449;28;20058;-85
2023/06/14 08:44:07;;;;;;;4.70;1.60;;;23.70;33.70;;;;;;4986499;28;20059;-84
2023/06/14 08:46:35;;;;;;;3.60;2.00;;;23.70;33.60;;;;;;4982936;28;20058;-83
2023/06/14 08:49:04;;;;;;;3.63;1.67;;;23.70;33.60;;;;;;4982067;28;20058;-83
2023/06/14 08:51:36;;;;;;;2.17;1.55;;;23.80;33.10;;;;;;4982250;28;20054;-85
2023/06/14 08:54:04;;;;;;;3.75;2.03;;;23.80;32.90;;;;;;4982619;28;20062;-83
2023/06/14 08:56:33;;;;;;;3.80;1.50;;;23.80;32.60;;;;;;4983766;28;20506;-83
2023/06/14 08:59:02;;;;;;;2.83;1.48;;;23.90;32.70;;;;;;4982762;28;20050;-84
2023/06/14 09:01:31;;;;;;;2.38;1.40;;;23.90;32.50;;;;;;4982869;28;20061;-85
2023/06/14 09:04:00;;;;;;;2.38;1.30;;;24.00;32.50;;;;;;4982816;28;20475;-83
2023/06/14 09:06:28;;;;;;;2.45;1.58;;;24.00;32.00;;;;;;4982597;28;20054;-86
2023/06/14 09:08:57;;;;;;;3.25;1.63;;;24.00;32.00;;;;;;4982803;28;20058;-83
2023/06/14 09:11:26;;;;;;;4.82;1.50;;;24.00;31.80;;;;;;4982995;28;20058;-87
2023/06/14 09:13:53;;;;;;;3.67;1.30;;;24.10;31.90;;;;;;4979370;28;20163;-86
2023/06/14 09:16:21;;;;;;;4.10;1.80;;;24.10;32.20;;;;;;4981781;28;20054;-90
2023/06/14 09:18:49;;;;;;;5.72;1.70;;;24.10;32.50;;;;;;4981195;28;20065;-90
2023/06/14 09:21:18;;;;;;;2.83;1.50;;;24.10;32.40;;;;;;4980789;28;20058;-88
2023/06/14 09:23:46;;;;;;;6.05;1.80;;;24.20;32.20;;;;;;4981784;28;20062;-90
2023/06/14 09:26:16;;;;;;;3.33;1.75;;;24.20;32.40;;;;;;4979980;28;20414;-88
2023/06/14 09:28:44;;;;;;;4.75;1.75;;;24.20;32.20;;;;;;4979404;28;20058;-88
2023/06/14 09:31:12;;;;;;;2.97;1.90;;;24.20;32.30;;;;;;4978833;28;20054;-91
2023/06/14 09:33:42;;;;;;;2.40;1.73;;;24.30;32.00;;;;;;4980525;28;20073;-87
2023/06/14 09:36:13;;;;;;;3.05;1.55;;;24.30;31.80;;;;;;4979754;28;20062;-88
2023/06/14 09:38:41;;;;;;;3.85;1.77;;;24.30;31.60;;;;;;4981352;28;20444;-90
2023/06/14 09:41:09;;;;;;;2.50;1.63;;;24.40;31.90;;;;;;4980445;28;20066;-89
2023/06/14 09:43:38;;;;;;;2.28;1.55;;;24.40;32.30;;;;;;4982129;28;20058;-92
2023/06/14 09:46:07;;;;;;;4.85;1.95;;;24.40;32.50;;;;;;4979574;28;20058;-88
2023/06/14 09:48:35;;;;;;;3.08;1.80;;;24.40;32.80;;;;;;4979877;28;20521;-92
2023/06/14 09:51:03;;;;;;;7.32;1.95;;;24.50;32.50;;;;;;4981341;28;20050;-86
2023/06/14 09:53:31;;;;;;;2.55;1.77;;;24.50;33.40;;;;;;4986348;28;20051;-88
2023/06/14 09:56:00;;;;;;;5.05;1.60;;;24.50;32.60;;;;;;4981688;28;20061;-90
2023/06/14 09:58:29;;;;;;;2.83;1.52;;;24.50;32.30;;;;;;4979329;28;20395;-88
2023/06/14 10:00:58;;;;;;;3.15;1.70;;;24.60;32.30;;;;;;4980590;28;20062;-90
2023/06/14 10:03:29;;;;;;;3.30;1.50;;;24.50;32.30;;;;;;4979141;28;20411;-92
2023/06/14 10:06:01;;;;;;;2.42;1.73;;;24.60;32.80;;;;;;4982897;28;20046;-86
2023/06/14 10:08:32;;;;;;;2.25;1.55;;;24.60;32.60;;;;;;4977669;28;20521;-89
2023/06/14 10:10:59;;;;;;;4.07;1.40;;;24.60;32.80;;;;;;4982078;28;20065;-88
2023/06/14 10:13:29;;;;;;;2.10;1.50;;;24.70;32.70;;;;;;4980292;28;20058;-90
2023/06/14 10:16:06;;;;;;;2.22;1.25;;;24.70;32.80;;;;;;4981358;28;20061;-90
2023/06/14 10:18:41;;;;;;;2.70;1.42;;;24.70;32.60;;;;;;4979725;28;20058;-91
2023/06/14 10:21:17;;;;;;;3.42;1.50;;;24.70;32.60;;;;;;4980971;28;20593;-88
2023/06/14 10:23:48;;;;;;;2.13;1.40;;;24.80;32.90;;;;;;4980548;28;20069;-92
2023/06/14 10:26:23;;;;;;;3.10;1.95;;;24.80;32.70;;;;;;4981771;28;20054;-91
2023/06/14 10:28:58;;;;;;;3.03;1.50;;;24.80;32.60;;;;;;4982275;28;20062;-89
2023/06/14 10:31:42;;;;;;;1.50;1.30;;;24.80;31.90;;;;;;4977650;28;20375;-88
2023/06/14 10:34:09;;;;;;;1.50;1.00;;;24.80;32.20;;;;;;4978636;28;20065;-92
2023/06/14 10:36:36;;;;;;;1.65;1.38;;;24.80;32.40;;;;;;4977452;28;20073;-90
2023/06/14 10:39:08;;;;;;;2.88;1.50;;;24.80;32.70;;;;;;4980643;28;20430;-91
2023/06/14 10:41:37;;;;;;;6.88;1.33;;;24.90;31.90;;;;;;4978470;28;20058;-90
2023/06/14 10:44:42;;;;;;;1.80;1.33;;;24.90;31.70;;;;;;4978862;28;20058;-88
2023/06/14 10:47:24;;;;;;;1.77;1.25;;;24.90;31.40;;;;;;4979507;28;20958;-91
2023/06/14 10:49:54;;;;;;;1.92;1.23;;;24.90;31.00;;;;;;4980471;28;20062;-90
2023/06/14 10:52:24;;;;;;;1.88;1.38;;;24.90;31.20;;;;;;4979505;28;20057;-91
2023/06/14 10:55:04;;;;;;;1.77;1.30;;;24.90;31.10;;;;;;4977310;28;20529;-92
2023/06/14 10:57:32;;;;;;;3.10;0.98;;;24.90;31.30;;;;;;4979216;28;20062;-91
2023/06/14 11:00:00;;;;;;;3.20;1.45;;;24.90;31.30;;;;;;4979286;28;20387;-86
2023/06/14 11:02:54;;;;;;;1.65;1.00;;;25.00;31.20;;;;;;4977271;28;20061;-86
2023/06/14 11:05:26;;;;;;;1.35;1.15;;;25.00;31.10;;;;;;4977124;28;20054;-91
2023/06/14 11:08:11;;;;;;;1.60;1.00;;;25.00;31.00;;;;;;4978607;28;20058;-92
2023/06/14 11:10:40;;;;;;;4.22;1.08;;;25.00;30.60;;;;;;4980624;28;20064;-92
2023/06/14 11:13:07;;;;;;;2.42;1.25;;;25.00;30.60;;;;;;4984636;28;20054;-91
2023/06/14 11:15:36;;;;;;;1.58;1.10;;;25.00;30.40;;;;;;4982028;28;20407;-90
2023/06/14 11:18:07;;;;;;;4.50;1.45;;;25.00;30.50;;;;;;4984993;28;20061;-93
2023/06/14 11:20:36;;;;;;;4.28;1.35;;;25.00;30.60;;;;;;4981651;28;20046;-93
2023/06/14 11:23:05;;;;;;;1.63;1.08;;;25.10;30.70;;;;;;4979671;28;20061;-93
2023/06/14 11:25:33;;;;;;;1.52;1.00;;;25.10;30.60;;;;;;4983787;28;20050;-92
2023/06/14 11:28:00;;;;;;;2.17;1.35;;;25.10;31.00;;;;;;4981643;28;20122;-94
2023/06/14 11:30:28;;;;;;;1.83;1.10;;;25.20;31.00;;;;;;4983692;28;20410;-90
2023/06/14 11:32:56;;;;;;;2.28;1.30;;;25.20;30.70;;;;;;4984024;28;20410;-92
2023/06/14 11:35:26;;;;;;;3.35;1.30;;;25.20;30.60;;;;;;4982922;28;20062;-92
2023/06/14 11:37:55;;;;;;;2.58;1.20;;;25.20;30.40;;;;;;4986335;28;20058;-87
2023/06/14 11:40:25;;;;;;;1.55;1.17;;;25.20;30.30;;;;;;4982942;28;20058;-86
2023/06/14 11:43:01;;;;;;;3.13;1.40;;;25.20;30.30;;;;;;4978260;28;20065;-87
2023/06/14 11:45:30;;;;;;;1.35;1.13;;;25.20;30.40;;;;;;4982460;28;20426;-87
2023/06/14 11:48:00;;;;;;;5.22;1.30;;;25.20;30.60;;;;;;4979094;28;20054;-88
2023/06/14 11:50:29;;;;;;;1.27;0.73;;;25.20;30.70;;;;;;4978779;28;20499;-86
2023/06/14 11:52:59;;;;;;;1.30;1.13;;;25.30;30.40;;;;;;4981247;28;20050;-89
2023/06/14 11:55:30;;;;;;;1.00;0.90;;;25.20;30.40;;;;;;4978235;28;20046;-87
2023/06/14 11:57:58;;;;;;;3.80;1.20;;;25.20;30.40;;;;;;4980459;28;20050;-88
2023/06/14 12:00:27;;;;;;;2.38;1.10;;;25.30;30.70;;;;;;4980085;28;20050;-89
2023/06/14 12:02:55;;;;;;;1.48;1.15;;;25.30;30.70;;;;;;4977274;28;20054;-87
2023/06/14 12:05:24;;;;;;;3.15;1.55;;;25.30;30.70;;;;;;4983337;28;20073;-86
2023/06/14 12:07:59;;;;;;;6.30;1.20;;;25.30;30.70;;;;;;4980799;28;20062;-89
2023/06/14 12:10:27;;;;;;;1.60;1.10;;;25.30;30.70;;;;;;4981174;28;20050;-85
2023/06/14 12:12:59;;;;;;;2.25;1.00;;;25.40;30.80;;;;;;4979397;28;20061;-87
2023/06/14 12:15:29;;;;;;;1.98;1.15;;;25.40;30.80;;;;;;4981087;28;20798;-85
2023/06/14 12:17:58;;;;;;;1.10;1.00;;;25.40;31.10;;;;;;4981134;28;20054;-86
2023/06/14 12:20:30;;;;;;;1.63;1.10;;;25.40;31.10;;;;;;4981091;28;20057;-86
2023/06/14 12:23:02;;;;;;;2.03;1.23;;;25.40;31.00;;;;;;4980676;28;20054;-84
2023/06/14 12:25:32;;;;;;;1.58;1.40;;;25.40;31.10;;;;;;4982428;28;20064;-86
2023/06/14 12:28:00;;;;;;;9.60;1.40;;;25.40;31.20;;;;;;4982546;28;20046;-85
2023/06/14 12:30:27;;;;;;;2.05;1.38;;;25.40;30.80;;;;;;4983400;28;20058;-85
2023/06/14 12:32:54;;;;;;;2.60;1.42;;;25.40;30.80;;;;;;4982723;28;20506;-84
2023/06/14 12:35:22;;;;;;;1.70;1.40;;;25.40;30.70;;;;;;4979977;28;20058;-86
2023/06/14 12:37:49;;;;;;;2.38;1.30;;;25.40;30.80;;;;;;4978181;28;20058;-85
2023/06/14 12:40:18;;;;;;;4.10;1.40;;;25.40;30.80;;;;;;4988337;28;20065;-88
2023/06/14 12:42:47;;;;;;;3.15;1.52;;;25.40;31.10;;;;;;4980273;28;20058;-85
2023/06/14 12:45:14;;;;;;;4.65;1.50;;;25.40;30.80;;;;;;4982754;28;20061;-85
2023/06/14 12:47:42;;;;;;;4.22;1.60;;;25.50;30.70;;;;;;4981882;28;20077;-91
2023/06/14 12:50:09;;;;;;;2.83;1.83;;;25.50;30.30;;;;;;4982444;28;20062;-91
2023/06/14 12:52:36;;;;;;;1.40;1.30;;;25.50;30.20;;;;;;4977597;28;20070;-89
2023/06/14 12:55:05;;;;;;;1.73;1.40;;;25.40;30.30;;;;;;4982381;28;20054;-90